<?xml version="1.0" encoding="utf-8"?>
<gpx xmlns:xsi="http://www.w3.org/2001/XMLSchema-instance" xmlns:xsd="http://www.w3.org/2001/XMLSchema" version="1.1" creator="Shapelink.com" xmlns="http://www.topografix.com/GPX/1/1" xmlns:gpxtpx="http://www.garmin.com/xmlschemas/TrackPointExtension/v1">
  <metadata>
    <name>Cykling 2.04 km, 2013-04-09</name>
    <desc></desc>
    <author><name>Alexander Engvall</name></author> 
    <time>2013-04-09T09:18:04Z</time>
  </metadata>
  <trk>
    <name>Cykling 2.04 km, 2013-04-09</name>
    <trkseg>
      <trkpt lat="59.3395830983" lon="18.0300820476">
        <ele>0</ele>
        <time>2013-04-09T09:18:04Z</time>
      </trkpt>
      <trkpt lat="59.3395873731" lon="18.0300807065">
        <ele>0.4</ele>
        <time>2013-04-09T09:18:05Z</time>
      </trkpt>
      <trkpt lat="59.3396035502" lon="18.0300911001">
        <ele>0.4</ele>
        <time>2013-04-09T09:18:07Z</time>
      </trkpt>
      <trkpt lat="59.3396099204" lon="18.0301438222">
        <ele>0.4</ele>
        <time>2013-04-09T09:18:08Z</time>
      </trkpt>
      <trkpt lat="59.3396120159" lon="18.0302993903">
        <ele>0.4</ele>
        <time>2013-04-09T09:18:11Z</time>
      </trkpt>
      <trkpt lat="59.3395570306" lon="18.0305174873">
        <ele>0.4</ele>
        <time>2013-04-09T09:18:16Z</time>
      </trkpt>
      <trkpt lat="59.3395002013" lon="18.0306559563">
        <ele>0.4</ele>
        <time>2013-04-09T09:18:18Z</time>
      </trkpt>
      <trkpt lat="59.3394422824" lon="18.0307971913">
        <ele>0.4</ele>
        <time>2013-04-09T09:18:20Z</time>
      </trkpt>
      <trkpt lat="59.3392204135" lon="18.0313286038">
        <ele>0.4</ele>
        <time>2013-04-09T09:18:27Z</time>
      </trkpt>
      <trkpt lat="59.3390072618" lon="18.0318367146">
        <ele>0.4</ele>
        <time>2013-04-09T09:18:34Z</time>
      </trkpt>
      <trkpt lat="59.3387683777" lon="18.0324081087">
        <ele>0.4</ele>
        <time>2013-04-09T09:18:40Z</time>
      </trkpt>
      <trkpt lat="59.3385416473" lon="18.0329701989">
        <ele>0</ele>
        <time>2013-04-09T09:18:45Z</time>
      </trkpt>
      <trkpt lat="59.3384968041" lon="18.0330846957">
        <ele>0</ele>
        <time>2013-04-09T09:18:46Z</time>
      </trkpt>
      <trkpt lat="59.338450536" lon="18.0332006174">
        <ele>0</ele>
        <time>2013-04-09T09:18:47Z</time>
      </trkpt>
      <trkpt lat="59.338407453" lon="18.0333280222">
        <ele>0</ele>
        <time>2013-04-09T09:18:48Z</time>
      </trkpt>
      <trkpt lat="59.3382965605" lon="18.0337047048">
        <ele>0</ele>
        <time>2013-04-09T09:18:51Z</time>
      </trkpt>
      <trkpt lat="59.3382599316" lon="18.0338270806">
        <ele>0</ele>
        <time>2013-04-09T09:18:52Z</time>
      </trkpt>
      <trkpt lat="59.3382249791" lon="18.0339572515">
        <ele>0</ele>
        <time>2013-04-09T09:18:53Z</time>
      </trkpt>
      <trkpt lat="59.3381936308" lon="18.0340921162">
        <ele>0</ele>
        <time>2013-04-09T09:18:54Z</time>
      </trkpt>
      <trkpt lat="59.338162031" lon="18.0342340218">
        <ele>0</ele>
        <time>2013-04-09T09:18:55Z</time>
      </trkpt>
      <trkpt lat="59.3381409924" lon="18.0343715688">
        <ele>0</ele>
        <time>2013-04-09T09:18:56Z</time>
      </trkpt>
      <trkpt lat="59.3380562514" lon="18.0347664401">
        <ele>0</ele>
        <time>2013-04-09T09:18:59Z</time>
      </trkpt>
      <trkpt lat="59.3380172756" lon="18.0349173981">
        <ele>0</ele>
        <time>2013-04-09T09:19:00Z</time>
      </trkpt>
      <trkpt lat="59.3379801438" lon="18.0350695296">
        <ele>0</ele>
        <time>2013-04-09T09:19:01Z</time>
      </trkpt>
      <trkpt lat="59.3379492146" lon="18.0352253491">
        <ele>0</ele>
        <time>2013-04-09T09:19:02Z</time>
      </trkpt>
      <trkpt lat="59.3379148488" lon="18.0353875389">
        <ele>0</ele>
        <time>2013-04-09T09:19:03Z</time>
      </trkpt>
      <trkpt lat="59.3378822432" lon="18.0355418497">
        <ele>0</ele>
        <time>2013-04-09T09:19:04Z</time>
      </trkpt>
      <trkpt lat="59.3377819118" lon="18.0360168519">
        <ele>0</ele>
        <time>2013-04-09T09:19:08Z</time>
      </trkpt>
      <trkpt lat="59.3376897109" lon="18.0367094483">
        <ele>0</ele>
        <time>2013-04-09T09:19:14Z</time>
      </trkpt>
      <trkpt lat="59.337691555" lon="18.0368243642">
        <ele>0</ele>
        <time>2013-04-09T09:19:15Z</time>
      </trkpt>
      <trkpt lat="59.3376888727" lon="18.0371683574">
        <ele>0</ele>
        <time>2013-04-09T09:19:18Z</time>
      </trkpt>
      <trkpt lat="59.3376569377" lon="18.0381850818">
        <ele>0</ele>
        <time>2013-04-09T09:19:27Z</time>
      </trkpt>
      <trkpt lat="59.3376566863" lon="18.0389722261">
        <ele>0</ele>
        <time>2013-04-09T09:19:34Z</time>
      </trkpt>
      <trkpt lat="59.3376467118" lon="18.0391842881">
        <ele>0</ele>
        <time>2013-04-09T09:19:36Z</time>
      </trkpt>
      <trkpt lat="59.3376224043" lon="18.039559462">
        <ele>0</ele>
        <time>2013-04-09T09:19:40Z</time>
      </trkpt>
      <trkpt lat="59.3376333008" lon="18.0396580331">
        <ele>0</ele>
        <time>2013-04-09T09:19:41Z</time>
      </trkpt>
      <trkpt lat="59.3376772219" lon="18.0398096617">
        <ele>0</ele>
        <time>2013-04-09T09:19:43Z</time>
      </trkpt>
      <trkpt lat="59.3377502283" lon="18.0399498909">
        <ele>0</ele>
        <time>2013-04-09T09:19:46Z</time>
      </trkpt>
      <trkpt lat="59.3377787267" lon="18.0399732764">
        <ele>0</ele>
        <time>2013-04-09T09:19:47Z</time>
      </trkpt>
      <trkpt lat="59.3378959895" lon="18.0401050398">
        <ele>0</ele>
        <time>2013-04-09T09:19:51Z</time>
      </trkpt>
      <trkpt lat="59.3379192074" lon="18.0401432613">
        <ele>0</ele>
        <time>2013-04-09T09:19:52Z</time>
      </trkpt>
      <trkpt lat="59.3379489631" lon="18.0401890265">
        <ele>0</ele>
        <time>2013-04-09T09:19:53Z</time>
      </trkpt>
      <trkpt lat="59.3379787189" lon="18.0402444308">
        <ele>0</ele>
        <time>2013-04-09T09:19:54Z</time>
      </trkpt>
      <trkpt lat="59.3380074688" lon="18.0402997514">
        <ele>0</ele>
        <time>2013-04-09T09:19:55Z</time>
      </trkpt>
      <trkpt lat="59.338083325" lon="18.0404744302">
        <ele>0</ele>
        <time>2013-04-09T09:19:58Z</time>
      </trkpt>
      <trkpt lat="59.338087013" lon="18.0405332711">
        <ele>0</ele>
        <time>2013-04-09T09:19:59Z</time>
      </trkpt>
      <trkpt lat="59.3380837441" lon="18.0405846522">
        <ele>0</ele>
        <time>2013-04-09T09:20:00Z</time>
      </trkpt>
      <trkpt lat="59.3380746916" lon="18.0406181798">
        <ele>0</ele>
        <time>2013-04-09T09:20:01Z</time>
      </trkpt>
      <trkpt lat="59.3380458579" lon="18.0406486061">
        <ele>0</ele>
        <time>2013-04-09T09:20:02Z</time>
      </trkpt>
      <trkpt lat="59.3379826583" lon="18.040770898">
        <ele>0</ele>
        <time>2013-04-09T09:20:04Z</time>
      </trkpt>
      <trkpt lat="59.337942509" lon="18.0408429823">
        <ele>0</ele>
        <time>2013-04-09T09:20:05Z</time>
      </trkpt>
      <trkpt lat="59.3378171158" lon="18.0410753286">
        <ele>0</ele>
        <time>2013-04-09T09:20:08Z</time>
      </trkpt>
      <trkpt lat="59.3377785591" lon="18.041162668">
        <ele>0</ele>
        <time>2013-04-09T09:20:09Z</time>
      </trkpt>
      <trkpt lat="59.3376995178" lon="18.0413406995">
        <ele>0</ele>
        <time>2013-04-09T09:20:11Z</time>
      </trkpt>
      <trkpt lat="59.3376203926" lon="18.0415268615">
        <ele>0</ele>
        <time>2013-04-09T09:20:13Z</time>
      </trkpt>
      <trkpt lat="59.3375443688" lon="18.0417150352">
        <ele>0</ele>
        <time>2013-04-09T09:20:15Z</time>
      </trkpt>
      <trkpt lat="59.3372932471" lon="18.0423860063">
        <ele>0</ele>
        <time>2013-04-09T09:20:22Z</time>
      </trkpt>
      <trkpt lat="59.337268269" lon="18.0425012574">
        <ele>0</ele>
        <time>2013-04-09T09:20:23Z</time>
      </trkpt>
      <trkpt lat="59.3371581308" lon="18.0428247149">
        <ele>0</ele>
        <time>2013-04-09T09:20:26Z</time>
      </trkpt>
      <trkpt lat="59.3371258605" lon="18.0429449952">
        <ele>0</ele>
        <time>2013-04-09T09:20:27Z</time>
      </trkpt>
      <trkpt lat="59.3369490863" lon="18.0434682772">
        <ele>0</ele>
        <time>2013-04-09T09:20:32Z</time>
      </trkpt>
      <trkpt lat="59.3369329092" lon="18.0435883898">
        <ele>0</ele>
        <time>2013-04-09T09:20:33Z</time>
      </trkpt>
      <trkpt lat="59.3368703802" lon="18.0439730352">
        <ele>0</ele>
        <time>2013-04-09T09:20:36Z</time>
      </trkpt>
      <trkpt lat="59.3368505989" lon="18.0440948242">
        <ele>0</ele>
        <time>2013-04-09T09:20:37Z</time>
      </trkpt>
      <trkpt lat="59.3368272972" lon="18.0442087343">
        <ele>0</ele>
        <time>2013-04-09T09:20:38Z</time>
      </trkpt>
      <trkpt lat="59.3368079351" lon="18.044327422">
        <ele>0</ele>
        <time>2013-04-09T09:20:39Z</time>
      </trkpt>
      <trkpt lat="59.3367876509" lon="18.044437644">
        <ele>0</ele>
        <time>2013-04-09T09:20:40Z</time>
      </trkpt>
      <trkpt lat="59.3367697136" lon="18.0445502967">
        <ele>0</ele>
        <time>2013-04-09T09:20:41Z</time>
      </trkpt>
      <trkpt lat="59.3367298158" lon="18.0447800446">
        <ele>0</ele>
        <time>2013-04-09T09:20:43Z</time>
      </trkpt>
      <trkpt lat="59.3365863176" lon="18.0455584716">
        <ele>0</ele>
        <time>2013-04-09T09:20:50Z</time>
      </trkpt>
      <trkpt lat="59.3365645247" lon="18.045663413">
        <ele>0</ele>
        <time>2013-04-09T09:20:51Z</time>
      </trkpt>
      <trkpt lat="59.3365475094" lon="18.0457732159">
        <ele>0</ele>
        <time>2013-04-09T09:20:52Z</time>
      </trkpt>
      <trkpt lat="59.3365311647" lon="18.0458937476">
        <ele>0</ele>
        <time>2013-04-09T09:20:53Z</time>
      </trkpt>
      <trkpt lat="59.3364278997" lon="18.0465497151">
        <ele>0</ele>
        <time>2013-04-09T09:20:58Z</time>
      </trkpt>
      <trkpt lat="59.3362840663" lon="18.047533834">
        <ele>0</ele>
        <time>2013-04-09T09:21:05Z</time>
      </trkpt>
      <trkpt lat="59.3362126525" lon="18.0479103489">
        <ele>0</ele>
        <time>2013-04-09T09:21:08Z</time>
      </trkpt>
      <trkpt lat="59.336135539" lon="18.0483975888">
        <ele>0</ele>
        <time>2013-04-09T09:21:12Z</time>
      </trkpt>
      <trkpt lat="59.3360900253" lon="18.0486457768">
        <ele>0</ele>
        <time>2013-04-09T09:21:14Z</time>
      </trkpt>
      <trkpt lat="59.33602582" lon="18.0489515486">
        <ele>0</ele>
        <time>2013-04-09T09:21:17Z</time>
      </trkpt>
      <trkpt lat="59.3359283385" lon="18.0495790176">
        <ele>0</ele>
        <time>2013-04-09T09:21:22Z</time>
      </trkpt>
      <trkpt lat="59.3358167754" lon="18.0501816762">
        <ele>0</ele>
        <time>2013-04-09T09:21:27Z</time>
      </trkpt>
      <trkpt lat="59.3357979999" lon="18.0502966759">
        <ele>0</ele>
        <time>2013-04-09T09:21:28Z</time>
      </trkpt>
      <trkpt lat="59.3357788892" lon="18.0504145254">
        <ele>0</ele>
        <time>2013-04-09T09:21:29Z</time>
      </trkpt>
      <trkpt lat="59.3357582697" lon="18.050538829">
        <ele>0</ele>
        <time>2013-04-09T09:21:30Z</time>
      </trkpt>
      <trkpt lat="59.3357318667" lon="18.0506638869">
        <ele>0</ele>
        <time>2013-04-09T09:21:31Z</time>
      </trkpt>
      <trkpt lat="59.3357047932" lon="18.0507913756">
        <ele>0</ele>
        <time>2013-04-09T09:21:32Z</time>
      </trkpt>
      <trkpt lat="59.3356602015" lon="18.0510572495">
        <ele>0</ele>
        <time>2013-04-09T09:21:34Z</time>
      </trkpt>
      <trkpt lat="59.3354566051" lon="18.0520711241">
        <ele>0</ele>
        <time>2013-04-09T09:21:42Z</time>
      </trkpt>
      <trkpt lat="59.3352869555" lon="18.0528970765">
        <ele>0</ele>
        <time>2013-04-09T09:21:50Z</time>
      </trkpt>
      <trkpt lat="59.3352473091" lon="18.0530836576">
        <ele>0</ele>
        <time>2013-04-09T09:21:52Z</time>
      </trkpt>
      <trkpt lat="59.3351901445" lon="18.0533144951">
        <ele>0</ele>
        <time>2013-04-09T09:21:55Z</time>
      </trkpt>
      <trkpt lat="59.3349733048" lon="18.0534484379">
        <ele>0</ele>
        <time>2013-04-09T09:21:58Z</time>
      </trkpt>
      <trkpt lat="59.334813462" lon="18.0536277268">
        <ele>0</ele>
        <time>2013-04-09T09:22:01Z</time>
      </trkpt>
      <trkpt lat="59.3347569679" lon="18.0536848913">
        <ele>0</ele>
        <time>2013-04-09T09:22:02Z</time>
      </trkpt>
      <trkpt lat="59.3346924273" lon="18.0537229451">
        <ele>0</ele>
        <time>2013-04-09T09:22:03Z</time>
      </trkpt>
      <trkpt lat="59.3346340055" lon="18.0537920958">
        <ele>0</ele>
        <time>2013-04-09T09:22:04Z</time>
      </trkpt>
      <trkpt lat="59.3345730691" lon="18.0538569717">
        <ele>0</ele>
        <time>2013-04-09T09:22:05Z</time>
      </trkpt>
      <trkpt lat="59.3343613423" lon="18.0540899047">
        <ele>0</ele>
        <time>2013-04-09T09:22:09Z</time>
      </trkpt>
      <trkpt lat="59.3342911858" lon="18.0541516793">
        <ele>0</ele>
        <time>2013-04-09T09:22:11Z</time>
      </trkpt>
      <trkpt lat="59.3342506174" lon="18.0541900684">
        <ele>0</ele>
        <time>2013-04-09T09:22:12Z</time>
      </trkpt>
      <trkpt lat="59.3339472764" lon="18.0544492368">
        <ele>0</ele>
        <time>2013-04-09T09:22:18Z</time>
      </trkpt>
      <trkpt lat="59.3337835779" lon="18.0546042181">
        <ele>0</ele>
        <time>2013-04-09T09:22:21Z</time>
      </trkpt>
      <trkpt lat="59.3336356374" lon="18.0547674137">
        <ele>0</ele>
        <time>2013-04-09T09:22:24Z</time>
      </trkpt>
      <trkpt lat="59.3334746211" lon="18.0548739476">
        <ele>0</ele>
        <time>2013-04-09T09:22:27Z</time>
      </trkpt>
      <trkpt lat="59.3333388343" lon="18.0549869357">
        <ele>0</ele>
        <time>2013-04-09T09:22:30Z</time>
      </trkpt>
      <trkpt lat="59.3332914766" lon="18.0550244866">
        <ele>0</ele>
        <time>2013-04-09T09:22:31Z</time>
      </trkpt>
      <trkpt lat="59.3332418557" lon="18.0550610317">
        <ele>0</ele>
        <time>2013-04-09T09:22:32Z</time>
      </trkpt>
      <trkpt lat="59.3331924025" lon="18.0550955651">
        <ele>0</ele>
        <time>2013-04-09T09:22:33Z</time>
      </trkpt>
      <trkpt lat="59.3331432007" lon="18.0551246503">
        <ele>0</ele>
        <time>2013-04-09T09:22:34Z</time>
      </trkpt>
      <trkpt lat="59.3330605552" lon="18.0551954773">
        <ele>0</ele>
        <time>2013-04-09T09:22:36Z</time>
      </trkpt>
      <trkpt lat="59.3327390255" lon="18.0555358663">
        <ele>0</ele>
        <time>2013-04-09T09:22:44Z</time>
      </trkpt>
      <trkpt lat="59.3326321563" lon="18.0555891752">
        <ele>0</ele>
        <time>2013-04-09T09:22:47Z</time>
      </trkpt>
      <trkpt lat="59.3326051666" lon="18.055597138">
        <ele>0</ele>
        <time>2013-04-09T09:22:48Z</time>
      </trkpt>
      <trkpt lat="59.3325698788" lon="18.0556011613">
        <ele>0</ele>
        <time>2013-04-09T09:22:49Z</time>
      </trkpt>
      <trkpt lat="59.3325376085" lon="18.0556040111">
        <ele>0</ele>
        <time>2013-04-09T09:22:50Z</time>
      </trkpt>
      <trkpt lat="59.3325091938" lon="18.0556496087">
        <ele>0</ele>
        <time>2013-04-09T09:22:51Z</time>
      </trkpt>
      <trkpt lat="59.3324774264" lon="18.0557118862">
        <ele>0</ele>
        <time>2013-04-09T09:22:52Z</time>
      </trkpt>
      <trkpt lat="59.3322657834" lon="18.0560274647">
        <ele>0</ele>
        <time>2013-04-09T09:22:59Z</time>
      </trkpt>
      <trkpt lat="59.3322556414" lon="18.0560772532">
        <ele>0</ele>
        <time>2013-04-09T09:23:03Z</time>
      </trkpt>
      <trkpt lat="59.3322509475" lon="18.0564319752">
        <ele>0</ele>
        <time>2013-04-09T09:23:07Z</time>
      </trkpt>
      <trkpt lat="59.3322453316" lon="18.0566079113">
        <ele>0</ele>
        <time>2013-04-09T09:23:09Z</time>
      </trkpt>
      <trkpt lat="59.3322713155" lon="18.0569571851">
        <ele>0</ele>
        <time>2013-04-09T09:23:13Z</time>
      </trkpt>
      <trkpt lat="59.3322944495" lon="18.0571835802">
        <ele>0</ele>
        <time>2013-04-09T09:23:16Z</time>
      </trkpt>
      <trkpt lat="59.3322866544" lon="18.0573317722">
        <ele>0</ele>
        <time>2013-04-09T09:23:18Z</time>
      </trkpt>
      <trkpt lat="59.3322914321" lon="18.0574709955">
        <ele>0</ele>
        <time>2013-04-09T09:23:20Z</time>
      </trkpt>
      <trkpt lat="59.3323140632" lon="18.0575470194">
        <ele>0</ele>
        <time>2013-04-09T09:23:22Z</time>
      </trkpt>
      <trkpt lat="59.332422525" lon="18.0576403099">
        <ele>0</ele>
        <time>2013-04-09T09:23:26Z</time>
      </trkpt>
      <trkpt lat="59.3323823757" lon="18.0576946246">
        <ele>0</ele>
        <time>2013-04-09T09:23:29Z</time>
      </trkpt>
      <trkpt lat="59.3323420587" lon="18.0581062597">
        <ele>0</ele>
        <time>2013-04-09T09:23:35Z</time>
      </trkpt>
      <trkpt lat="59.3324741575" lon="18.0584863789">
        <ele>0</ele>
        <time>2013-04-09T09:23:41Z</time>
      </trkpt>
      <trkpt lat="59.3327414563" lon="18.0588587029">
        <ele>0</ele>
        <time>2013-04-09T09:23:47Z</time>
      </trkpt>
      <trkpt lat="59.332845308" lon="18.0590566834">
        <ele>0</ele>
        <time>2013-04-09T09:23:51Z</time>
      </trkpt>
      <trkpt lat="59.3328554501" lon="18.0590653167">
        <ele>0</ele>
        <time>2013-04-09T09:23:52Z</time>
      </trkpt>
    </trkseg>
  </trk>
</gpx>